Willey, Iowa
Current Conditions -  °F | °C
As of 10:55 AM on Monday 22 Dec 2014 (Local Time) from KCIN Reporting Station
Unknown Precip Unknown Precip  
Wind Chill: 33°   Ceiling: 700
Heat Index: 41°   Visibility: 3mi
Dew Point: 39°   Wind: 16mph
Humidity: 93%   Direction: 150°SSE
Pressure: 29.53"   Gusts: NA
Location:  42.08°N, 94.8598°W
Report Text: KCIN 221655Z AUTO 15014KT 3SM -UP OVC007 05/04 A2953 RMK AO2
Loading
Personal Weather Stations






























Interactive Weather Map New forecast layout! Learn more

10-Day Weather Forecast

Advertisements
Track Severe Weather on mobile